createdAt,value
2023-02-28T00:00:33.947Z,98889.72
2023-02-28T00:01:35.547Z,98891.31
2023-02-28T00:02:38.531Z,98887.13
2023-02-28T00:03:40.179Z,98890.06
2023-02-28T00:04:42.820Z,98887.03
2023-02-28T00:05:44.498Z,98889.16
2023-02-28T00:06:47.088Z,98894.91
2023-02-28T00:07:48.984Z,98887.34
2023-02-28T00:08:52.920Z,98889.06
2023-02-28T00:09:54.617Z,98893.97
2023-02-28T00:10:57.291Z,98889.91
2023-02-28T00:11:59.008Z,98896.19
2023-02-28T00:13:03.150Z,98894.22
2023-02-28T00:14:04.804Z,98887.72
2023-02-28T00:15:10.216Z,98892.38
2023-02-28T00:16:14.033Z,98880.31
2023-02-28T00:17:17.266Z,98881.94
2023-02-28T00:18:18.888Z,98886.03
2023-02-28T00:19:21.473Z,98882.28
2023-02-28T00:20:23.172Z,98885.41
2023-02-28T00:21:25.871Z,98880.09
2023-02-28T00:22:27.470Z,98888.56
2023-02-28T00:23:30.093Z,98890.19
2023-02-28T00:24:33.063Z,98890.09
2023-02-28T00:25:35.766Z,98885.19
2023-02-28T00:26:38.365Z,98875.53
2023-02-28T00:27:40.370Z,98872.75
2023-02-28T00:28:42.937Z,98874.50
2023-02-28T00:29:44.553Z,98872.88
2023-02-28T00:30:47.218Z,98874.16
2023-02-28T00:31:48.860Z,98877.41
2023-02-28T00:32:51.597Z,98874.97
2023-02-28T00:33:53.220Z,98871.72
2023-02-28T00:34:55.796Z,98883.69
2023-02-28T00:36:07.565Z,98872.91
2023-02-28T00:37:11.340Z,98882.56
2023-02-28T00:38:12.954Z,98876.75
2023-02-28T00:39:15.525Z,98880.44
2023-02-28T00:40:18.749Z,98881.97
2023-02-28T00:41:21.364Z,98878.94
2023-02-28T00:42:23.084Z,98879.53
2023-02-28T00:43:25.671Z,98880.22
2023-02-28T00:44:27.359Z,98879.63
2023-02-28T00:45:29.957Z,98871.19
2023-02-28T00:46:31.662Z,98870.72
2023-02-28T00:47:34.286Z,98877.69
2023-02-28T00:48:36.207Z,98878.72
2023-02-28T00:49:38.776Z,98877.22
2023-02-28T00:50:40.383Z,98878.47
2023-02-28T00:51:42.996Z,98871.50
2023-02-28T00:52:44.876Z,98875.00
2023-02-28T00:53:47.474Z,98880.81
2023-02-28T00:54:49.093Z,98882.91
2023-02-28T00:55:53.059Z,98882.22
2023-02-28T00:56:54.728Z,98885.25
2023-02-28T00:57:57.311Z,98885.56
2023-02-28T00:58:58.913Z,98876.88
2023-02-28T01:00:01.479Z,98881.63
2023-02-28T01:01:03.207Z,98885.94
2023-02-28T01:02:05.876Z,98886.50
2023-02-28T01:03:07.489Z,98885.91
2023-02-28T01:04:10.088Z,98881.38
2023-02-28T01:05:12.691Z,98890.44
2023-02-28T01:06:14.436Z,98884.16
2023-02-28T01:07:17.057Z,98878.13
2023-02-28T01:08:18.663Z,98883.25
2023-02-28T01:09:21.243Z,98881.16
2023-02-28T01:10:23.829Z,98883.94
2023-02-28T01:11:27.142Z,98892.22
2023-02-28T01:12:31.104Z,98889.19
2023-02-28T01:13:32.785Z,98880.47
2023-02-28T01:14:35.607Z,98882.31
2023-02-28T01:15:37.239Z,98887.22
2023-02-28T01:16:42.387Z,98891.84
2023-02-28T01:17:44.050Z,98886.38
2023-02-28T01:18:46.618Z,98886.03
2023-02-28T01:19:48.215Z,98886.63
2023-02-28T01:20:52.664Z,98890.22
2023-02-28T01:21:54.324Z,98882.00
2023-02-28T01:22:56.973Z,98883.25
2023-02-28T01:23:58.746Z,98886.59
2023-02-28T01:25:01.321Z,98884.06
2023-02-28T01:26:05.584Z,98880.22
2023-02-28T01:27:09.512Z,98885.69
2023-02-28T01:28:11.163Z,98875.00
2023-02-28T01:29:13.766Z,98883.13
2023-02-28T01:30:15.553Z,98873.63
2023-02-28T01:31:19.145Z,98883.03
2023-02-28T01:32:22.253Z,98884.19
2023-02-28T01:33:23.948Z,98880.13
2023-02-28T01:34:26.539Z,98879.31
2023-02-28T01:35:28.161Z,98883.25
2023-02-28T01:36:30.791Z,98879.97
2023-02-28T01:37:32.413Z,98871.53
2023-02-28T01:38:35.122Z,98875.22
2023-02-28T01:39:36.730Z,98876.88
2023-02-28T01:40:39.296Z,98873.97
2023-02-28T01:41:40.974Z,98876.16
2023-02-28T01:42:44.898Z,98867.94
2023-02-28T01:44:00.687Z,98878.97
2023-02-28T01:45:07.907Z,98868.50
2023-02-28T01:46:09.667Z,98874.06
2023-02-28T01:47:12.238Z,98872.69
2023-02-28T01:48:13.900Z,98871.16
2023-02-28T01:49:17.414Z,98872.34
2023-02-28T01:50:20.163Z,98870.13
2023-02-28T01:51:24.223Z,98861.88
2023-02-28T01:52:25.966Z,98867.69
2023-02-28T01:53:31.338Z,98868.63
2023-02-28T01:54:33.582Z,98867.13
2023-02-28T01:55:36.168Z,98870.13
2023-02-28T01:56:37.797Z,98863.50
2023-02-28T01:57:42.132Z,98863.16
2023-02-28T01:58:45.130Z,98860.16
2023-02-28T01:59:50.756Z,98860.63
2023-02-28T02:00:52.370Z,98859.19
2023-02-28T02:01:55.363Z,98861.63
2023-02-28T02:02:58.526Z,98864.66
2023-02-28T02:04:02.401Z,98858.38
2023-02-28T02:05:05.028Z,98856.66
2023-02-28T02:06:07.627Z,98860.13
2023-02-28T02:07:09.308Z,98862.56
2023-02-28T02:08:14.193Z,98858.28
2023-02-28T02:09:15.860Z,98860.94
2023-02-28T02:10:19.293Z,98863.72
2023-02-28T02:11:21.803Z,98858.06
2023-02-28T02:12:27.533Z,98865.13
2023-02-28T02:13:39.203Z,98864.56
2023-02-28T02:14:49.557Z,98865.81
2023-02-28T02:15:58.967Z,98864.56
2023-02-28T02:17:15.291Z,98859.34
2023-02-28T02:18:20.836Z,98867.47
2023-02-28T02:19:48.285Z,98867.00
2023-02-28T02:21:30.768Z,98864.44
2023-02-28T02:22:46.686Z,98852.34
2023-02-28T02:24:28.843Z,98857.00
2023-02-28T02:25:30.793Z,98857.13
2023-02-28T02:26:46.456Z,98860.84
2023-02-28T02:28:12.875Z,98859.56
2023-02-28T02:29:33.113Z,98867.81
2023-02-28T02:31:03.635Z,98865.25
2023-02-28T02:32:24.854Z,98857.69
2023-02-28T02:33:59.415Z,98857.69
2023-02-28T02:35:07.082Z,98859.69
2023-02-28T02:36:10.406Z,98855.25
2023-02-28T02:37:18.084Z,98858.84
2023-02-28T02:38:22.095Z,98862.00
2023-02-28T02:39:26.330Z,98856.78
2023-02-28T02:40:31.809Z,98858.88
2023-02-28T02:41:36.951Z,98857.34
2023-02-28T02:42:43.550Z,98855.84
2023-02-28T02:43:48.583Z,98855.94
2023-02-28T02:44:54.847Z,98868.28
2023-02-28T02:45:57.813Z,98866.28
2023-02-28T02:47:00.779Z,98864.78
2023-02-28T02:48:03.714Z,98866.97
2023-02-28T02:49:07.097Z,98863.41
2023-02-28T02:50:13.999Z,98870.25
2023-02-28T02:51:16.442Z,98865.81
2023-02-28T02:52:22.122Z,98865.59
2023-02-28T02:53:25.250Z,98866.28
2023-02-28T02:54:29.824Z,98871.88
2023-02-28T02:55:31.766Z,98864.78
2023-02-28T02:56:34.573Z,98868.97
2023-02-28T02:57:37.203Z,98866.41
2023-02-28T02:58:43.062Z,98863.84
2023-02-28T02:59:44.745Z,98856.56
2023-02-28T03:00:48.440Z,98857.94
2023-02-28T03:01:50.993Z,98868.88
2023-02-28T03:02:53.614Z,98871.66
2023-02-28T03:03:57.030Z,98869.19
2023-02-28T03:05:01.838Z,98871.16
2023-02-28T03:06:06.824Z,98874.41
2023-02-28T03:07:09.408Z,98868.25
2023-02-28T03:08:11.022Z,98877.00
2023-02-28T03:09:13.624Z,98876.97
2023-02-28T03:10:36.247Z,98870.13
2023-02-28T03:11:39.220Z,98873.25
2023-02-28T03:12:42.430Z,98870.47
2023-02-28T03:14:01.539Z,98873.38
2023-02-28T03:15:08.769Z,98872.94
2023-02-28T03:16:37.201Z,98872.09
2023-02-28T03:17:50.685Z,98870.03
2023-02-28T03:18:55.189Z,98867.81
2023-02-28T03:20:05.123Z,98872.69
2023-02-28T03:21:13.563Z,98868.38
2023-02-28T03:22:35.263Z,98874.78
2023-02-28T03:23:39.531Z,98870.47
2023-02-28T03:24:45.230Z,98874.66
2023-02-28T03:25:54.770Z,98869.31
2023-02-28T03:27:01.491Z,98865.72
2023-02-28T03:28:06.386Z,98868.97
2023-02-28T03:29:13.827Z,98871.06
2023-02-28T03:30:16.913Z,98869.09
2023-02-28T03:31:21.320Z,98871.97
2023-02-28T03:32:25.557Z,98868.75
2023-02-28T03:33:29.688Z,98869.91
2023-02-28T03:34:33.855Z,98870.00
2023-02-28T03:35:38.004Z,98870.56
2023-02-28T03:36:45.060Z,98869.78
2023-02-28T03:37:47.851Z,98875.13
2023-02-28T03:38:50.503Z,98870.94
2023-02-28T03:39:55.368Z,98874.56
2023-02-28T03:40:59.781Z,98875.59
2023-02-28T03:42:03.641Z,98874.78
2023-02-28T03:43:09.688Z,98869.44
2023-02-28T03:44:16.237Z,98875.22
2023-02-28T03:45:18.561Z,98875.47
2023-02-28T03:46:23.032Z,98871.63
2023-02-28T03:47:26.008Z,98876.25
2023-02-28T03:48:31.865Z,98872.41
2023-02-28T03:49:35.576Z,98872.53
2023-02-28T03:50:39.069Z,98867.91
2023-02-28T03:51:42.172Z,98867.78
2023-02-28T03:52:47.108Z,98871.03
2023-02-28T03:53:52.324Z,98865.22
2023-02-28T03:54:58.019Z,98864.84
2023-02-28T03:56:01.292Z,98853.38
2023-02-28T03:57:06.875Z,98863.25
2023-02-28T03:58:13.605Z,98859.44
2023-02-28T03:59:17.196Z,98863.81
2023-02-28T04:00:19.907Z,98860.47
2023-02-28T04:01:24.000Z,98861.25
2023-02-28T04:02:25.651Z,98858.44
2023-02-28T04:03:28.242Z,98858.22
2023-02-28T04:04:29.923Z,98858.69
2023-02-28T04:05:32.533Z,98857.19
2023-02-28T04:06:34.516Z,98853.69
2023-02-28T04:07:38.725Z,98858.47
2023-02-28T04:08:40.359Z,98854.94
2023-02-28T04:09:43.007Z,98856.59
2023-02-28T04:10:44.688Z,98855.91
2023-02-28T04:11:48.041Z,98861.72
2023-02-28T04:12:49.692Z,98858.81
2023-02-28T04:13:52.293Z,98849.97
2023-02-28T04:14:53.963Z,98859.25
2023-02-28T04:15:56.574Z,98849.50
2023-02-28T04:16:58.181Z,98855.00
2023-02-28T04:18:00.795Z,98853.94
2023-02-28T04:19:03.173Z,98849.06
2023-02-28T04:20:10.457Z,98844.88
2023-02-28T04:21:12.387Z,98850.47
2023-02-28T04:22:15.417Z,98856.03
2023-02-28T04:23:18.479Z,98847.69
2023-02-28T04:24:22.735Z,98848.63
2023-02-28T04:25:24.356Z,98853.44
2023-02-28T04:26:26.952Z,98852.03
2023-02-28T04:27:31.811Z,98851.84
2023-02-28T04:28:34.291Z,98857.06
2023-02-28T04:29:37.001Z,98857.66
2023-02-28T04:30:39.173Z,98852.63
2023-02-28T04:31:41.936Z,98853.25
2023-02-28T04:32:43.611Z,98852.41
2023-02-28T04:33:46.224Z,98851.72
2023-02-28T04:34:47.898Z,98854.16
2023-02-28T04:35:50.528Z,98852.41
2023-02-28T04:37:10.077Z,98850.22
2023-02-28T04:38:14.793Z,98858.78
2023-02-28T04:39:19.342Z,98854.84
2023-02-28T04:40:21.946Z,98852.31
2023-02-28T04:41:23.862Z,98849.06
2023-02-28T04:42:26.432Z,98851.13
2023-02-28T04:43:28.553Z,98850.69
2023-02-28T04:44:31.137Z,98853.50
2023-02-28T04:45:34.763Z,98847.19
2023-02-28T04:46:37.366Z,98850.69
2023-02-28T04:47:38.993Z,98848.56
2023-02-28T04:48:42.000Z,98845.44
2023-02-28T04:49:43.793Z,98848.69
2023-02-28T04:50:46.436Z,98848.38
2023-02-28T04:51:48.291Z,98853.13
2023-02-28T04:52:50.883Z,98854.16
2023-02-28T04:53:53.036Z,98857.63
2023-02-28T04:54:57.027Z,98859.47
2023-02-28T04:55:58.761Z,98853.78
2023-02-28T04:57:02.472Z,98853.78
2023-02-28T04:58:04.116Z,98854.94
2023-02-28T04:59:06.702Z,98853.56
2023-02-28T05:00:12.453Z,98849.84
2023-02-28T05:01:20.151Z,98857.72
2023-02-28T05:02:24.663Z,98853.78
2023-02-28T05:03:28.024Z,98855.41
2023-02-28T05:04:30.715Z,98863.56
2023-02-28T05:05:32.344Z,98858.66
2023-02-28T05:06:35.101Z,98854.22
2023-02-28T05:07:36.743Z,98863.59
2023-02-28T05:08:39.367Z,98862.09
2023-02-28T05:09:40.986Z,98861.78
2023-02-28T05:10:44.923Z,98865.91
2023-02-28T05:11:46.553Z,98858.75
2023-02-28T05:12:49.756Z,98862.56
2023-02-28T05:13:51.532Z,98865.84
2023-02-28T05:14:54.136Z,98863.94
2023-02-28T05:15:55.822Z,98862.31
2023-02-28T05:16:58.495Z,98863.22
2023-02-28T05:18:00.124Z,98870.63
2023-02-28T05:19:02.840Z,98859.50
2023-02-28T05:20:15.097Z,98864.25
2023-02-28T05:21:25.761Z,98860.44
2023-02-28T05:22:28.342Z,98867.53
2023-02-28T05:23:30.159Z,98865.53
2023-02-28T05:24:32.917Z,98866.53
2023-02-28T05:25:34.525Z,98859.16
2023-02-28T05:26:38.806Z,98864.13
2023-02-28T05:27:40.448Z,98865.28
2023-02-28T05:28:43.031Z,98865.84
2023-02-28T05:29:45.638Z,98863.22
2023-02-28T05:30:47.405Z,98866.03
2023-02-28T05:31:50.302Z,98873.34
2023-02-28T05:32:52.241Z,98869.19
2023-02-28T05:33:54.821Z,98867.50
2023-02-28T05:34:56.454Z,98869.69
2023-02-28T05:35:59.088Z,98863.50
2023-02-28T05:37:00.777Z,98868.56
2023-02-28T05:38:03.381Z,98867.31
2023-02-28T05:39:06.132Z,98869.31
2023-02-28T05:40:11.227Z,98866.31
2023-02-28T05:41:12.876Z,98870.13
2023-02-28T05:42:16.837Z,98873.91
2023-02-28T05:43:18.449Z,98870.81
2023-02-28T05:44:21.049Z,98875.25
2023-02-28T05:45:22.661Z,98873.38
2023-02-28T05:46:25.248Z,98874.03
2023-02-28T05:47:26.920Z,98883.31
2023-02-28T05:48:29.528Z,98869.91
2023-02-28T05:49:31.195Z,98871.22
2023-02-28T05:50:33.792Z,98882.59
2023-02-28T05:51:37.224Z,98873.41
2023-02-28T05:52:39.856Z,98868.56
2023-02-28T05:53:41.486Z,98875.44
2023-02-28T05:54:44.094Z,98873.88
2023-02-28T05:55:45.752Z,98873.66
2023-02-28T05:56:48.338Z,98879.22
2023-02-28T05:57:51.324Z,98876.50
2023-02-28T05:58:53.913Z,98880.91
2023-02-28T05:59:55.555Z,98884.28
2023-02-28T06:00:58.213Z,98883.25
2023-02-28T06:01:59.846Z,98887.50
2023-02-28T06:03:03.166Z,98878.72
2023-02-28T06:04:05.865Z,98881.66
2023-02-28T06:05:10.300Z,98887.31
2023-02-28T06:06:11.931Z,98875.94
2023-02-28T06:07:14.522Z,98881.53
2023-02-28T06:08:16.148Z,98880.28
2023-02-28T06:09:18.752Z,98876.81
2023-02-28T06:10:20.609Z,98884.69
2023-02-28T06:11:28.085Z,98877.72
2023-02-28T06:12:30.031Z,98878.69
2023-02-28T06:13:34.007Z,98885.44
2023-02-28T06:14:35.821Z,98884.28
2023-02-28T06:15:38.440Z,98883.13
2023-02-28T06:16:40.116Z,98886.84
2023-02-28T06:17:42.719Z,98885.59
2023-02-28T06:18:44.325Z,98890.63
2023-02-28T06:19:47.224Z,98893.16
2023-02-28T06:20:55.404Z,98894.09
2023-02-28T06:21:58.310Z,98901.28
2023-02-28T06:22:59.924Z,98901.13
2023-02-28T06:24:02.674Z,98898.94
2023-02-28T06:25:04.793Z,98900.03
2023-02-28T06:26:07.481Z,98902.78
2023-02-28T06:27:09.129Z,98900.69
2023-02-28T06:28:11.706Z,98907.16
2023-02-28T06:29:19.229Z,98901.59
2023-02-28T06:30:25.576Z,98903.84
2023-02-28T06:31:27.338Z,98903.56
2023-02-28T06:32:30.040Z,98899.16
2023-02-28T06:33:31.647Z,98898.03
2023-02-28T06:34:34.915Z,98897.25
2023-02-28T06:35:36.555Z,98901.19
2023-02-28T06:36:39.185Z,98897.72
2023-02-28T06:37:41.883Z,98909.66
2023-02-28T06:38:44.691Z,98906.41
2023-02-28T06:39:46.323Z,98913.19
2023-02-28T06:40:55.217Z,98912.09
2023-02-28T06:41:58.198Z,98916.19
2023-02-28T06:43:00.967Z,98914.78
2023-02-28T06:44:02.592Z,98916.44
2023-02-28T06:45:10.258Z,98911.00
2023-02-28T06:46:14.568Z,98917.84
2023-02-28T06:47:17.244Z,98922.94
2023-02-28T06:48:19.893Z,98923.06
2023-02-28T06:49:22.507Z,98918.53
2023-02-28T06:50:25.152Z,98919.59
2023-02-28T06:51:28.234Z,98919.59
2023-02-28T06:52:31.017Z,98920.44
2023-02-28T06:53:32.710Z,98927.50
2023-02-28T06:54:35.306Z,98925.66
2023-02-28T06:55:38.764Z,98929.38
2023-02-28T06:56:41.412Z,98928.31
2023-02-28T06:57:44.018Z,98933.06
2023-02-28T06:58:47.594Z,98933.56
2023-02-28T06:59:50.226Z,98932.03
2023-02-28T07:00:53.365Z,98937.63
2023-02-28T07:01:56.867Z,98942.38
2023-02-28T07:02:58.527Z,98933.09
2023-02-28T07:04:01.228Z,98938.53
2023-02-28T07:05:02.898Z,98939.94
2023-02-28T07:06:06.863Z,98932.28
2023-02-28T07:07:09.529Z,98946.22
2023-02-28T07:08:11.209Z,98947.63
2023-02-28T07:09:14.753Z,98952.50
2023-02-28T07:10:20.094Z,98945.28
2023-02-28T07:11:23.385Z,98943.91
2023-02-28T07:12:25.161Z,98950.19
2023-02-28T07:13:28.044Z,98948.44
2023-02-28T07:14:29.668Z,98951.91
2023-02-28T07:15:32.311Z,98956.09
2023-02-28T07:16:36.267Z,98950.88
2023-02-28T07:17:37.889Z,98948.78
2023-02-28T07:18:40.587Z,98950.53
2023-02-28T07:19:42.246Z,98951.91
2023-02-28T07:20:44.844Z,98948.09
2023-02-28T07:21:47.436Z,98953.53
2023-02-28T07:22:56.010Z,98952.16
2023-02-28T07:23:58.740Z,98953.31
2023-02-28T07:25:00.408Z,98942.25
2023-02-28T07:26:03.017Z,98953.53
2023-02-28T07:27:04.702Z,98955.50
2023-02-28T07:28:07.290Z,98951.06
2023-02-28T07:29:10.048Z,98944.56
2023-02-28T07:30:13.042Z,98954.56
2023-02-28T07:31:16.028Z,98944.97
2023-02-28T07:32:19.650Z,98952.97
2023-02-28T07:33:22.254Z,98951.59
2023-02-28T07:34:24.886Z,98949.75
2023-02-28T07:35:26.657Z,98961.31
2023-02-28T07:36:29.369Z,98956.66
2023-02-28T07:37:32.416Z,98956.13
2023-02-28T07:38:35.748Z,98951.97
2023-02-28T07:39:37.398Z,98951.88
2023-02-28T07:40:40.038Z,98946.13
2023-02-28T07:41:44.468Z,98946.03
2023-02-28T07:42:46.310Z,98947.41
2023-02-28T07:43:49.113Z,98943.00
2023-02-28T07:44:52.615Z,98946.50
2023-02-28T07:45:55.260Z,98951.00
2023-02-28T07:46:57.925Z,98945.94
2023-02-28T07:48:01.023Z,98947.53
2023-02-28T07:49:03.924Z,98939.22
2023-02-28T07:50:06.397Z,98951.63
2023-02-28T07:51:08.990Z,98945.72
2023-02-28T07:52:12.399Z,98942.94
2023-02-28T07:53:14.063Z,98949.16
2023-02-28T07:54:16.655Z,98939.69
2023-02-28T07:55:18.930Z,98953.31
2023-02-28T07:56:21.521Z,98947.41
2023-02-28T07:57:24.137Z,98956.19
2023-02-28T07:58:25.873Z,98954.06
2023-02-28T07:59:30.058Z,98952.75
2023-02-28T08:00:34.624Z,98951.88
2023-02-28T08:01:37.278Z,98948.19
2023-02-28T08:02:38.934Z,98951.56
2023-02-28T08:03:42.907Z,98956.72
2023-02-28T08:04:44.577Z,98950.81
2023-02-28T08:05:47.235Z,98956.06
2023-02-28T08:06:52.848Z,98957.81
2023-02-28T08:07:54.510Z,98959.78
2023-02-28T08:08:57.924Z,98954.19
2023-02-28T08:10:00.517Z,98958.78
2023-02-28T08:11:02.850Z,98960.47
2023-02-28T08:12:05.819Z,98955.81
2023-02-28T08:13:08.433Z,98950.13
2023-02-28T08:14:11.037Z,98959.06
2023-02-28T08:15:12.680Z,98962.63
2023-02-28T08:16:18.399Z,98961.44
2023-02-28T08:17:21.287Z,98966.09
2023-02-28T08:18:23.971Z,98957.66
2023-02-28T08:19:27.944Z,98966.47
2023-02-28T08:20:29.601Z,98957.28
2023-02-28T08:21:32.257Z,98952.44
2023-02-28T08:22:33.906Z,98946.75
2023-02-28T08:23:36.508Z,98945.66
2023-02-28T08:24:39.107Z,98951.84
2023-02-28T08:25:40.733Z,98946.16
2023-02-28T08:26:43.385Z,98943.19
2023-02-28T08:27:45.085Z,98945.63
2023-02-28T08:28:47.737Z,98937.75
2023-02-28T08:29:50.487Z,98944.28
2023-02-28T08:30:52.091Z,98943.16
2023-02-28T08:31:54.813Z,98954.47
2023-02-28T08:32:56.525Z,98947.38
2023-02-28T08:34:00.130Z,98950.91
2023-02-28T08:35:04.660Z,98953.41
2023-02-28T08:36:07.220Z,98945.50
2023-02-28T08:37:09.866Z,98952.00
2023-02-28T08:38:12.470Z,98949.97
2023-02-28T08:39:15.142Z,98946.72
2023-02-28T08:40:19.156Z,98942.88
2023-02-28T08:41:22.006Z,98938.28
2023-02-28T08:42:23.849Z,98943.97
2023-02-28T08:43:26.468Z,98947.19
2023-02-28T08:44:28.352Z,98945.63
2023-02-28T08:45:31.521Z,98951.84
2023-02-28T08:46:34.143Z,98953.75
2023-02-28T08:47:36.743Z,98945.09
2023-02-28T08:48:38.868Z,98949.38
2023-02-28T08:49:41.682Z,98950.06
2023-02-28T08:50:50.407Z,98940.91
2023-02-28T08:51:58.418Z,98947.50
2023-02-28T08:53:00.734Z,98945.88
2023-02-28T08:54:03.456Z,98950.56
2023-02-28T08:55:06.737Z,98952.25
2023-02-28T08:56:09.715Z,98942.09
2023-02-28T08:57:12.329Z,98945.03
2023-02-28T08:58:14.928Z,98949.69
2023-02-28T08:59:16.541Z,98952.91
2023-02-28T09:00:20.077Z,98952.63
2023-02-28T09:01:24.041Z,98945.47
2023-02-28T09:02:25.761Z,98944.63
2023-02-28T09:03:28.897Z,98957.59
2023-02-28T09:04:32.382Z,98957.34
2023-02-28T09:05:34.012Z,98946.75
2023-02-28T09:06:38.090Z,98940.69
2023-02-28T09:07:39.754Z,98953.53
2023-02-28T09:08:42.623Z,98945.41
2023-02-28T09:09:55.406Z,98945.97
2023-02-28T09:10:59.042Z,98944.84
2023-02-28T09:12:02.403Z,98939.75
2023-02-28T09:13:04.038Z,98950.06
2023-02-28T09:14:06.629Z,98946.03
2023-02-28T09:15:09.297Z,98947.66
2023-02-28T09:16:13.334Z,98943.38
2023-02-28T09:17:16.098Z,98933.38
2023-02-28T09:18:17.807Z,98945.50
2023-02-28T09:19:20.409Z,98949.38
2023-02-28T09:20:22.025Z,98946.50
2023-02-28T09:21:24.699Z,98954.91
2023-02-28T09:22:28.693Z,98952.22
2023-02-28T09:23:30.334Z,98943.56
2023-02-28T09:24:33.920Z,98955.72
2023-02-28T09:25:35.691Z,98940.75
2023-02-28T09:26:43.280Z,98943.75
2023-02-28T09:27:50.110Z,98948.34
2023-02-28T09:28:52.079Z,98947.25
2023-02-28T09:29:54.677Z,98952.13
2023-02-28T09:30:58.393Z,98947.22
2023-02-28T09:32:00.215Z,98943.56
2023-02-28T09:33:02.835Z,98947.38
2023-02-28T09:34:05.921Z,98949.09
2023-02-28T09:35:14.096Z,98960.47
2023-02-28T09:36:16.739Z,98962.72
2023-02-28T09:37:19.354Z,98955.38
2023-02-28T09:38:22.348Z,98966.84
2023-02-28T09:39:25.154Z,98962.13
2023-02-28T09:40:27.823Z,98958.50
2023-02-28T09:41:32.614Z,98953.88
2023-02-28T09:42:35.651Z,98955.31
2023-02-28T09:43:38.958Z,98957.53
2023-02-28T09:44:43.942Z,98968.97
2023-02-28T09:45:48.915Z,98966.28
2023-02-28T09:46:54.340Z,98962.34
2023-02-28T09:47:57.573Z,98954.13
2023-02-28T09:49:01.252Z,98962.44
2023-02-28T09:50:08.240Z,98942.41
2023-02-28T09:51:16.475Z,98960.72
2023-02-28T09:52:20.364Z,98964.94
2023-02-28T09:53:28.019Z,98964.94
2023-02-28T09:54:31.986Z,98961.25
2023-02-28T09:55:46.320Z,98956.63
2023-02-28T09:56:53.091Z,98960.91
2023-02-28T09:57:57.545Z,98967.16
2023-02-28T09:59:00.366Z,98961.34
2023-02-28T10:00:11.298Z,98955.06
2023-02-28T10:01:20.490Z,98957.13
2023-02-28T10:03:00.805Z,98974.09
2023-02-28T10:04:06.151Z,98970.06
2023-02-28T10:05:09.390Z,98967.78
2023-02-28T10:06:14.631Z,98956.50
2023-02-28T10:07:22.874Z,98968.94
2023-02-28T10:08:27.686Z,98958.31
2023-02-28T10:09:32.479Z,98969.97
2023-02-28T10:10:36.514Z,98956.53
2023-02-28T10:11:39.442Z,98946.09
2023-02-28T10:12:41.183Z,98966.88
2023-02-28T10:13:51.628Z,98950.00
2023-02-28T10:14:54.716Z,98952.06
2023-02-28T10:15:59.952Z,98939.25
2023-02-28T10:17:04.146Z,98948.00
2023-02-28T10:18:09.298Z,98948.88
2023-02-28T10:19:15.699Z,98945.56
2023-02-28T10:20:21.569Z,98949.22
2023-02-28T10:21:26.872Z,98946.19
2023-02-28T10:22:31.217Z,98941.22
2023-02-28T10:23:36.851Z,98946.13
2023-02-28T10:24:40.051Z,98941.09
2023-02-28T10:25:42.710Z,98943.38
2023-02-28T10:26:45.678Z,98954.41
2023-02-28T10:27:47.379Z,98948.59
2023-02-28T10:28:50.000Z,98933.50
2023-02-28T10:29:53.019Z,98935.44
2023-02-28T10:30:55.729Z,98945.94
2023-02-28T10:32:03.770Z,98938.97
2023-02-28T10:33:05.461Z,98939.66
2023-02-28T10:34:08.149Z,98945.56
2023-02-28T10:35:15.374Z,98945.25
2023-02-28T10:36:19.905Z,98943.94
2023-02-28T10:37:21.918Z,98942.13
2023-02-28T10:38:25.675Z,98921.34
2023-02-28T10:39:38.837Z,98931.34
2023-02-28T10:40:41.480Z,98925.38
2023-02-28T10:41:44.419Z,98931.56
2023-02-28T10:42:55.638Z,98930.97
2023-02-28T10:44:16.932Z,98928.25
2023-02-28T10:45:18.715Z,98928.28
2023-02-28T10:46:26.553Z,98928.03
2023-02-28T10:47:28.537Z,98937.72
2023-02-28T10:48:34.128Z,98935.38
2023-02-28T10:49:39.082Z,98936.38
2023-02-28T10:50:44.827Z,98927.09
2023-02-28T10:51:48.300Z,98935.69
2023-02-28T10:52:49.948Z,98921.94
2023-02-28T10:54:01.104Z,98931.22
2023-02-28T10:55:22.734Z,98916.75
2023-02-28T10:56:25.748Z,98924.31
2023-02-28T10:57:27.384Z,98929.97
2023-02-28T10:58:32.298Z,98913.25
2023-02-28T10:59:34.909Z,98929.94
2023-02-28T11:00:36.575Z,98927.13
2023-02-28T11:01:40.649Z,98937.91
2023-02-28T11:02:43.903Z,98928.25
2023-02-28T11:03:46.885Z,98935.28
2023-02-28T11:04:49.635Z,98925.34
2023-02-28T11:05:52.624Z,98929.41
2023-02-28T11:06:59.021Z,98915.56
2023-02-28T11:08:05.805Z,98919.75
2023-02-28T11:09:20.506Z,98926.91
2023-02-28T11:10:26.265Z,98922.81
2023-02-28T11:11:30.045Z,98914.72
2023-02-28T11:12:46.891Z,98924.03
2023-02-28T11:13:55.482Z,98920.75
2023-02-28T11:14:57.932Z,98932.34
2023-02-28T11:16:02.045Z,98921.03
2023-02-28T11:17:14.218Z,98935.59
2023-02-28T11:18:25.299Z,98938.53
2023-02-28T11:19:31.515Z,98944.25
2023-02-28T11:20:33.719Z,98930.00
2023-02-28T11:21:40.827Z,98930.47
2023-02-28T11:22:44.615Z,98915.16
2023-02-28T11:23:47.252Z,98912.22
2023-02-28T11:24:51.283Z,98933.22
2023-02-28T11:25:57.865Z,98929.03
2023-02-28T11:27:00.932Z,98912.44
2023-02-28T11:28:07.173Z,98916.75
2023-02-28T11:29:18.316Z,98920.69
2023-02-28T11:30:29.238Z,98932.03
2023-02-28T11:31:33.285Z,98924.19
2023-02-28T11:32:35.087Z,98932.88
2023-02-28T11:33:42.754Z,98935.66
2023-02-28T11:34:45.528Z,98935.66
2023-02-28T11:35:47.205Z,98926.22
2023-02-28T11:36:52.688Z,98924.56
2023-02-28T11:37:54.385Z,98927.63
2023-02-28T11:38:58.574Z,98928.00
2023-02-28T11:40:00.228Z,98942.69
2023-02-28T11:41:16.047Z,98930.50
2023-02-28T11:42:34.366Z,98920.25
2023-02-28T11:43:43.436Z,98930.78
2023-02-28T11:44:55.876Z,98936.44
2023-02-28T11:46:08.540Z,98922.84
2023-02-28T11:47:13.808Z,98927.63
2023-02-28T11:48:19.719Z,98924.19
2023-02-28T11:49:32.473Z,98922.72
2023-02-28T11:50:47.279Z,98914.19
2023-02-28T11:51:53.024Z,98918.47
2023-02-28T11:52:55.993Z,98921.44
2023-02-28T11:54:33.910Z,98915.97
2023-02-28T11:55:36.846Z,98915.16
2023-02-28T11:56:41.781Z,98917.16
2023-02-28T11:57:52.786Z,98920.41
2023-02-28T11:59:01.362Z,98917.22
2023-02-28T12:00:07.502Z,98914.59
2023-02-28T12:01:25.240Z,98922.78
2023-02-28T12:02:29.180Z,98927.13
2023-02-28T12:03:36.144Z,98912.97
2023-02-28T12:04:43.054Z,98918.41
2023-02-28T12:05:46.947Z,98920.56
2023-02-28T12:06:52.800Z,98919.56
2023-02-28T12:08:04.737Z,98914.00
2023-02-28T12:09:15.754Z,98911.38
2023-02-28T12:10:21.797Z,98916.69
2023-02-28T12:11:31.746Z,98918.06
2023-02-28T12:12:40.114Z,98917.38
2023-02-28T12:13:48.141Z,98919.72
2023-02-28T12:15:30.396Z,98913.16
2023-02-28T12:16:41.083Z,98914.41
2023-02-28T12:17:53.223Z,98905.94
2023-02-28T12:19:02.505Z,98908.50
2023-02-28T12:20:09.899Z,98908.00
2023-02-28T12:21:16.475Z,98904.97
2023-02-28T12:22:25.879Z,98899.84
2023-02-28T12:23:42.614Z,98903.34
2023-02-28T12:24:53.976Z,98905.75
2023-02-28T12:26:00.217Z,98904.56
2023-02-28T12:27:04.142Z,98902.41
2023-02-28T12:28:08.506Z,98893.56
2023-02-28T12:29:15.066Z,98897.16
2023-02-28T12:30:19.736Z,98908.59
2023-02-28T12:31:23.926Z,98902.91
2023-02-28T12:32:27.754Z,98906.25
2023-02-28T12:33:34.304Z,98910.38
2023-02-28T12:34:39.293Z,98896.06
2023-02-28T12:35:45.197Z,98906.44
2023-02-28T12:36:47.921Z,98907.59
2023-02-28T12:37:52.248Z,98899.59